sensor_id;sensor_type;location;lat;lon;timestamp;pressure;altitude;pressure_sealevel;temperature
17716;BMP280;50159;49.426;11.182;2022-09-27T00:01:08;95973.75;;;11.61
17716;BMP280;50159;49.426;11.182;2022-09-27T00:03:35;95960.63;;;11.54
17716;BMP280;50159;49.426;11.182;2022-09-27T00:06:07;95965.47;;;11.49
17716;BMP280;50159;49.426;11.182;2022-09-27T00:08:35;95966.63;;;11.47
17716;BMP280;50159;49.426;11.182;2022-09-27T00:11:11;95964.38;;;11.44
17716;BMP280;50159;49.426;11.182;2022-09-27T00:13:40;95961.44;;;11.39
17716;BMP280;50159;49.426;11.182;2022-09-27T00:16:09;95957.19;;;11.38
17716;BMP280;50159;49.426;11.182;2022-09-27T00:18:36;95946.66;;;11.40
17716;BMP280;50159;49.426;11.182;2022-09-27T00:21:14;95948.91;;;11.42
17716;BMP280;50159;49.426;11.182;2022-09-27T00:23:41;95940.78;;;11.45
17716;BMP280;50159;49.426;11.182;2022-09-27T00:26:12;95942.22;;;11.48
17716;BMP280;50159;49.426;11.182;2022-09-27T00:28:40;95930.50;;;11.52
17716;BMP280;50159;49.426;11.182;2022-09-27T00:31:33;95928.75;;;11.52
17716;BMP280;50159;49.426;11.182;2022-09-27T00:34:03;95931.97;;;11.54
17716;BMP280;50159;49.426;11.182;2022-09-27T00:36:32;95929.38;;;11.54
17716;BMP280;50159;49.426;11.182;2022-09-27T00:39:00;95925.00;;;11.47
17716;BMP280;50159;49.426;11.182;2022-09-27T00:41:32;95920.94;;;11.44
17716;BMP280;50159;49.426;11.182;2022-09-27T00:44:04;95912.97;;;11.46
17716;BMP280;50159;49.426;11.182;2022-09-27T00:46:48;95909.38;;;11.47
17716;BMP280;50159;49.426;11.182;2022-09-27T00:49:27;95904.97;;;11.47
17716;BMP280;50159;49.426;11.182;2022-09-27T00:52:06;95906.78;;;11.47
17716;BMP280;50159;49.426;11.182;2022-09-27T00:54:38;95904.00;;;11.48
17716;BMP280;50159;49.426;11.182;2022-09-27T00:57:07;95896.19;;;11.48
17716;BMP280;50159;49.426;11.182;2022-09-27T00:59:51;95900.91;;;11.45
17716;BMP280;50159;49.426;11.182;2022-09-27T01:02:19;95898.84;;;11.41
17716;BMP280;50159;49.426;11.182;2022-09-27T01:04:48;95900.94;;;11.37
17716;BMP280;50159;49.426;11.182;2022-09-27T01:07:15;95904.69;;;11.35
17716;BMP280;50159;49.426;11.182;2022-09-27T01:09:42;95886.78;;;11.32
17716;BMP280;50159;49.426;11.182;2022-09-27T01:12:31;95888.09;;;11.28
17716;BMP280;50159;49.426;11.182;2022-09-27T01:15:22;95881.56;;;11.24
17716;BMP280;50159;49.426;11.182;2022-09-27T01:21:22;95882.91;;;11.28
17716;BMP280;50159;49.426;11.182;2022-09-27T01:27:30;95867.28;;;11.20
17716;BMP280;50159;49.426;11.182;2022-09-27T01:30:41;95881.75;;;11.22
17716;BMP280;50159;49.426;11.182;2022-09-27T01:33:37;95885.31;;;11.21
17716;BMP280;50159;49.426;11.182;2022-09-27T01:36:23;95883.72;;;11.13
17716;BMP280;50159;49.426;11.182;2022-09-27T01:50:21;95869.13;;;10.88
17716;BMP280;50159;49.426;11.182;2022-09-27T01:53:04;95862.28;;;10.87
17716;BMP280;50159;49.426;11.182;2022-09-27T01:55:36;95858.25;;;10.85
17716;BMP280;50159;49.426;11.182;2022-09-27T01:58:12;95859.22;;;10.84
17716;BMP280;50159;49.426;11.182;2022-09-27T02:00:46;95857.44;;;10.84
17716;BMP280;50159;49.426;11.182;2022-09-27T02:03:26;95842.16;;;10.81
17716;BMP280;50159;49.426;11.182;2022-09-27T02:06:04;95857.59;;;10.83
17716;BMP280;50159;49.426;11.182;2022-09-27T02:08:42;95845.41;;;10.83
17716;BMP280;50159;49.426;11.182;2022-09-27T02:11:13;95848.47;;;10.87
17716;BMP280;50159;49.426;11.182;2022-09-27T02:13:58;95836.78;;;10.91
17716;BMP280;50159;49.426;11.182;2022-09-27T02:16:54;95843.28;;;10.95
17716;BMP280;50159;49.426;11.182;2022-09-27T02:22:31;95836.47;;;10.86
17716;BMP280;50159;49.426;11.182;2022-09-27T02:25:09;95837.78;;;10.82
17716;BMP280;50159;49.426;11.182;2022-09-27T02:28:11;95829.81;;;10.83
17716;BMP280;50159;49.426;11.182;2022-09-27T02:30:44;95828.50;;;10.87
17716;BMP280;50159;49.426;11.182;2022-09-27T02:33:11;95824.91;;;10.88
17716;BMP280;50159;49.426;11.182;2022-09-27T02:35:37;95825.88;;;10.87
17716;BMP280;50159;49.426;11.182;2022-09-27T02:38:06;95828.34;;;10.81
17716;BMP280;50159;49.426;11.182;2022-09-27T02:40:42;95830.78;;;10.74
17716;BMP280;50159;49.426;11.182;2022-09-27T02:43:13;95827.53;;;10.73
17716;BMP280;50159;49.426;11.182;2022-09-27T02:51:46;95814.72;;;10.71
17716;BMP280;50159;49.426;11.182;2022-09-27T02:54:38;95815.38;;;10.65
17716;BMP280;50159;49.426;11.182;2022-09-27T03:00:33;95807.72;;;10.64
17716;BMP280;50159;49.426;11.182;2022-09-27T03:03:20;95805.28;;;10.62
17716;BMP280;50159;49.426;11.182;2022-09-27T03:06:01;95804.19;;;10.57
17716;BMP280;50159;49.426;11.182;2022-09-27T03:08:29;95806.59;;;10.58
17716;BMP280;50159;49.426;11.182;2022-09-27T03:10:56;95802.38;;;10.57
17716;BMP280;50159;49.426;11.182;2022-09-27T03:13:23;95806.59;;;10.58
17716;BMP280;50159;49.426;11.182;2022-09-27T03:15:50;95804.00;;;10.58
17716;BMP280;50159;49.426;11.182;2022-09-27T03:18:16;95800.94;;;10.55
17716;BMP280;50159;49.426;11.182;2022-09-27T03:20:43;95809.06;;;10.52
17716;BMP280;50159;49.426;11.182;2022-09-27T03:23:10;95803.53;;;10.55
17716;BMP280;50159;49.426;11.182;2022-09-27T03:25:37;95800.75;;;10.56
17716;BMP280;50159;49.426;11.182;2022-09-27T03:28:04;95804.97;;;10.57
17716;BMP280;50159;49.426;11.182;2022-09-27T03:30:31;95804.50;;;10.54
17716;BMP280;50159;49.426;11.182;2022-09-27T03:32:58;95803.03;;;10.51
17716;BMP280;50159;49.426;11.182;2022-09-27T03:35:25;95801.56;;;10.57
17716;BMP280;50159;49.426;11.182;2022-09-27T03:37:51;95793.63;;;10.58
17716;BMP280;50159;49.426;11.182;2022-09-27T03:40:18;95802.72;;;10.54
17716;BMP280;50159;49.426;11.182;2022-09-27T03:42:45;95789.91;;;10.53
17716;BMP280;50159;49.426;11.182;2022-09-27T03:45:16;95797.00;;;10.51
17716;BMP280;50159;49.426;11.182;2022-09-27T03:47:43;95792.50;;;10.53
17716;BMP280;50159;49.426;11.182;2022-09-27T03:50:11;95792.97;;;10.56
17716;BMP280;50159;49.426;11.182;2022-09-27T03:52:38;95786.78;;;10.57
17716;BMP280;50159;49.426;11.182;2022-09-27T03:55:05;95794.59;;;10.57
17716;BMP280;50159;49.426;11.182;2022-09-27T03:57:32;95788.41;;;10.58
17716;BMP280;50159;49.426;11.182;2022-09-27T03:59:59;95784.03;;;10.59
17716;BMP280;50159;49.426;11.182;2022-09-27T04:02:27;95786.63;;;10.59
17716;BMP280;50159;49.426;11.182;2022-09-27T04:04:54;95789.88;;;10.61
17716;BMP280;50159;49.426;11.182;2022-09-27T04:07:21;95791.50;;;10.62
17716;BMP280;50159;49.426;11.182;2022-09-27T04:09:49;95794.59;;;10.65
17716;BMP280;50159;49.426;11.182;2022-09-27T04:12:15;95800.59;;;10.66
17716;BMP280;50159;49.426;11.182;2022-09-27T04:14:42;95794.59;;;10.65
17716;BMP280;50159;49.426;11.182;2022-09-27T04:17:09;95790.69;;;10.61
17716;BMP280;50159;49.426;11.182;2022-09-27T04:19:36;95791.66;;;10.60
17716;BMP280;50159;49.426;11.182;2022-09-27T04:22:03;95802.56;;;10.56
17716;BMP280;50159;49.426;11.182;2022-09-27T04:24:30;95796.22;;;10.58
17716;BMP280;50159;49.426;11.182;2022-09-27T04:26:57;95798.63;;;10.60
17716;BMP280;50159;49.426;11.182;2022-09-27T04:29:24;95787.44;;;10.59
17716;BMP280;50159;49.426;11.182;2022-09-27T04:31:51;95790.03;;;10.59
17716;BMP280;50159;49.426;11.182;2022-09-27T04:34:18;95800.75;;;10.56
17716;BMP280;50159;49.426;11.182;2022-09-27T04:37:11;95799.16;;;10.55
17716;BMP280;50159;49.426;11.182;2022-09-27T04:39:38;95783.56;;;10.55
17716;BMP280;50159;49.426;11.182;2022-09-27T04:42:05;95792.31;;;10.54
17716;BMP280;50159;49.426;11.182;2022-09-27T04:44:32;95789.72;;;10.54
17716;BMP280;50159;49.426;11.182;2022-09-27T04:46:58;95784.53;;;10.54
17716;BMP280;50159;49.426;11.182;2022-09-27T04:49:25;95789.38;;;10.57
17716;BMP280;50159;49.426;11.182;2022-09-27T04:51:52;95794.41;;;10.59
17716;BMP280;50159;49.426;11.182;2022-09-27T04:54:19;95801.41;;;10.58
17716;BMP280;50159;49.426;11.182;2022-09-27T04:56:46;95799.94;;;10.56
17716;BMP280;50159;49.426;11.182;2022-09-27T04:59:14;95817.50;;;10.54
17716;BMP280;50159;49.426;11.182;2022-09-27T05:01:41;95820.75;;;10.56
17716;BMP280;50159;49.426;11.182;2022-09-27T05:04:08;95831.78;;;10.58
17716;BMP280;50159;49.426;11.182;2022-09-27T05:06:35;95830.63;;;10.60
17716;BMP280;50159;49.426;11.182;2022-09-27T05:09:02;95827.22;;;10.60
17716;BMP280;50159;49.426;11.182;2022-09-27T05:11:29;95831.63;;;10.59
17716;BMP280;50159;49.426;11.182;2022-09-27T05:13:56;95838.78;;;10.57
17716;BMP280;50159;49.426;11.182;2022-09-27T05:16:23;95838.94;;;10.56
17716;BMP280;50159;49.426;11.182;2022-09-27T05:18:50;95844.31;;;10.54
17716;BMP280;50159;49.426;11.182;2022-09-27T05:21:17;95843.97;;;10.50
17716;BMP280;50159;49.426;11.182;2022-09-27T05:23:44;95846.88;;;10.47
17716;BMP280;50159;49.426;11.182;2022-09-27T05:26:13;95860.22;;;10.44
17716;BMP280;50159;49.426;11.182;2022-09-27T05:28:40;95856.31;;;10.40
17716;BMP280;50159;49.426;11.182;2022-09-27T05:31:09;95863.44;;;10.38
17716;BMP280;50159;49.426;11.182;2022-09-27T05:33:39;95870.59;;;10.36
17716;BMP280;50159;49.426;11.182;2022-09-27T05:36:07;95861.81;;;10.29
17716;BMP280;50159;49.426;11.182;2022-09-27T05:38:34;95859.53;;;10.26
17716;BMP280;50159;49.426;11.182;2022-09-27T05:41:02;95858.06;;;10.24
17716;BMP280;50159;49.426;11.182;2022-09-27T05:43:29;95872.69;;;10.25
17716;BMP280;50159;49.426;11.182;2022-09-27T05:45:56;95870.09;;;10.25
17716;BMP280;50159;49.426;11.182;2022-09-27T05:48:24;95874.63;;;10.23
17716;BMP280;50159;49.426;11.182;2022-09-27T05:50:51;95879.19;;;10.21
17716;BMP280;50159;49.426;11.182;2022-09-27T05:53:18;95877.56;;;10.20
17716;BMP280;50159;49.426;11.182;2022-09-27T05:55:45;95880.16;;;10.20
17716;BMP280;50159;49.426;11.182;2022-09-27T05:58:13;95885.50;;;10.18
17716;BMP280;50159;49.426;11.182;2022-09-27T06:00:42;95882.25;;;10.16
17716;BMP280;50159;49.426;11.182;2022-09-27T06:03:11;95888.09;;;10.18
17716;BMP280;50159;49.426;11.182;2022-09-27T06:05:39;95890.22;;;10.23
17716;BMP280;50159;49.426;11.182;2022-09-27T06:08:11;95884.56;;;10.27
17716;BMP280;50159;49.426;11.182;2022-09-27T06:10:40;95895.59;;;10.29
17716;BMP280;50159;49.426;11.182;2022-09-27T06:13:13;95886.50;;;10.33
17716;BMP280;50159;49.426;11.182;2022-09-27T06:15:43;95891.06;;;10.31
17716;BMP280;50159;49.426;11.182;2022-09-27T06:18:13;95894.78;;;10.29
17716;BMP280;50159;49.426;11.182;2022-09-27T06:20:41;95896.06;;;10.25
17716;BMP280;50159;49.426;11.182;2022-09-27T06:23:14;95894.44;;;10.24
17716;BMP280;50159;49.426;11.182;2022-09-27T06:25:41;95901.09;;;10.26
17716;BMP280;50159;49.426;11.182;2022-09-27T06:28:11;95895.28;;;10.32
17716;BMP280;50159;49.426;11.182;2022-09-27T06:30:43;95894.94;;;10.35
17716;BMP280;50159;49.426;11.182;2022-09-27T06:33:19;95899.16;;;10.36
17716;BMP280;50159;49.426;11.182;2022-09-27T06:35:47;95897.22;;;10.38
17716;BMP280;50159;49.426;11.182;2022-09-27T06:38:17;95897.88;;;10.40
17716;BMP280;50159;49.426;11.182;2022-09-27T06:40:46;95905.19;;;10.44
17716;BMP280;50159;49.426;11.182;2022-09-27T06:43:16;95908.94;;;10.42
17716;BMP280;50159;49.426;11.182;2022-09-27T06:45:44;95907.63;;;10.46
17716;BMP280;50159;49.426;11.182;2022-09-27T06:48:13;95914.78;;;10.44
17716;BMP280;50159;49.426;11.182;2022-09-27T06:50:43;95919.97;;;10.44
17716;BMP280;50159;49.426;11.182;2022-09-27T06:53:13;95920.94;;;10.43
17716;BMP280;50159;49.426;11.182;2022-09-27T06:55:40;95910.72;;;10.41
17716;BMP280;50159;49.426;11.182;2022-09-27T06:58:10;95918.97;;;10.37
17716;BMP280;50159;49.426;11.182;2022-09-27T07:00:56;95925.50;;;10.41
17716;BMP280;50159;49.426;11.182;2022-09-27T07:03:24;95937.19;;;10.45
17716;BMP280;50159;49.426;11.182;2022-09-27T07:06:05;95945.31;;;10.50
17716;BMP280;50159;49.426;11.182;2022-09-27T07:08:32;95945.81;;;10.53
17716;BMP280;50159;49.426;11.182;2022-09-27T07:11:04;95947.94;;;10.57
17716;BMP280;50159;49.426;11.182;2022-09-27T07:13:32;95954.09;;;10.56
17716;BMP280;50159;49.426;11.182;2022-09-27T07:16:00;95959.94;;;10.58
17716;BMP280;50159;49.426;11.182;2022-09-27T07:18:28;95967.09;;;10.56
17716;BMP280;50159;49.426;11.182;2022-09-27T07:20:54;95975.88;;;10.55
17716;BMP280;50159;49.426;11.182;2022-09-27T07:23:26;95980.41;;;10.53
17716;BMP280;50159;49.426;11.182;2022-09-27T07:25:53;95990.00;;;10.53
17716;BMP280;50159;49.426;11.182;2022-09-27T07:28:20;95996.97;;;10.52
17716;BMP280;50159;49.426;11.182;2022-09-27T07:30:48;96003.13;;;10.51
17716;BMP280;50159;49.426;11.182;2022-09-27T07:33:15;96004.75;;;10.45
17716;BMP280;50159;49.426;11.182;2022-09-27T07:35:42;96005.41;;;10.47
17716;BMP280;50159;49.426;11.182;2022-09-27T07:38:11;96013.88;;;10.56
17716;BMP280;50159;49.426;11.182;2022-09-27T07:40:42;96014.56;;;10.66
17716;BMP280;50159;49.426;11.182;2022-09-27T07:43:09;96019.94;;;10.80
17716;BMP280;50159;49.426;11.182;2022-09-27T07:45:38;96016.72;;;10.94
17716;BMP280;50159;49.426;11.182;2022-09-27T07:48:13;96033.47;;;11.07
17716;BMP280;50159;49.426;11.182;2022-09-27T07:50:40;96015.25;;;11.07
17716;BMP280;50159;49.426;11.182;2022-09-27T07:53:07;96025.00;;;11.13
17716;BMP280;50159;49.426;11.182;2022-09-27T07:55:38;96019.16;;;11.19
17716;BMP280;50159;49.426;11.182;2022-09-27T07:58:10;96032.50;;;11.32
17716;BMP280;50159;49.426;11.182;2022-09-27T08:00:38;96029.25;;;11.38
17716;BMP280;50159;49.426;11.182;2022-09-27T08:03:09;96034.63;;;11.36
17716;BMP280;50159;49.426;11.182;2022-09-27T08:05:37;96035.78;;;11.34
17716;BMP280;50159;49.426;11.182;2022-09-27T08:08:04;96040.47;;;11.30
17716;BMP280;50159;49.426;11.182;2022-09-27T08:10:33;96048.09;;;11.24
17716;BMP280;50159;49.426;11.182;2022-09-27T08:13:01;96052.50;;;11.23
17716;BMP280;50159;49.426;11.182;2022-09-27T08:15:31;96059.97;;;11.26
17716;BMP280;50159;49.426;11.182;2022-09-27T08:17:58;96048.91;;;11.24
17716;BMP280;50159;49.426;11.182;2022-09-27T08:20:25;96054.28;;;11.31
17716;BMP280;50159;49.426;11.182;2022-09-27T08:22:52;96054.00;;;11.42
17716;BMP280;50159;49.426;11.182;2022-09-27T08:25:18;96057.22;;;11.51
17716;BMP280;50159;49.426;11.182;2022-09-27T08:27:56;96065.69;;;11.69
17716;BMP280;50159;49.426;11.182;2022-09-27T08:30:24;96054.31;;;11.78
17716;BMP280;50159;49.426;11.182;2022-09-27T08:32:56;96061.09;;;11.94
17716;BMP280;50159;49.426;11.182;2022-09-27T08:35:24;96063.66;;;12.18
17716;BMP280;50159;49.426;11.182;2022-09-27T08:37:56;96082.41;;;12.51
17716;BMP280;50159;49.426;11.182;2022-09-27T08:46:26;96087.16;;;12.48
17716;BMP280;50159;49.426;11.182;2022-09-27T08:49:05;96074.38;;;12.23
17716;BMP280;50159;49.426;11.182;2022-09-27T08:51:37;96089.41;;;12.05
17716;BMP280;50159;49.426;11.182;2022-09-27T08:54:14;96086.81;;;11.97
17716;BMP280;50159;49.426;11.182;2022-09-27T08:56:45;96091.69;;;12.00
17716;BMP280;50159;49.426;11.182;2022-09-27T08:59:27;96084.19;;;12.05
17716;BMP280;50159;49.426;11.182;2022-09-27T09:01:55;96086.31;;;12.09
17716;BMP280;50159;49.426;11.182;2022-09-27T09:04:30;96093.31;;;12.09
17716;BMP280;50159;49.426;11.182;2022-09-27T09:16:52;96095.31;;;11.91
17716;BMP280;50159;49.426;11.182;2022-09-27T09:25:40;96113.97;;;11.32
17716;BMP280;50159;49.426;11.182;2022-09-27T09:34:13;96109.53;;;11.01
17716;BMP280;50159;49.426;11.182;2022-09-27T09:36:49;96115.88;;;11.07
17716;BMP280;50159;49.426;11.182;2022-09-27T09:39:32;96123.56;;;11.16
17716;BMP280;50159;49.426;11.182;2022-09-27T09:42:38;96128.16;;;11.38
17716;BMP280;50159;49.426;11.182;2022-09-27T09:45:23;96128.50;;;11.58
17716;BMP280;50159;49.426;11.182;2022-09-27T09:50:58;96117.94;;;11.67
17716;BMP280;50159;49.426;11.182;2022-09-27T09:53:38;96120.03;;;11.64
17716;BMP280;50159;49.426;11.182;2022-09-27T09:56:22;96114.19;;;11.62
17716;BMP280;50159;49.426;11.182;2022-09-27T09:58:57;96109.78;;;11.63
17716;BMP280;50159;49.426;11.182;2022-09-27T10:01:43;96121.69;;;11.65
17716;BMP280;50159;49.426;11.182;2022-09-27T10:04:19;96120.69;;;11.58
17716;BMP280;50159;49.426;11.182;2022-09-27T10:06:48;96115.50;;;11.58
17716;BMP280;50159;49.426;11.182;2022-09-27T10:09:21;96129.00;;;11.54
17716;BMP280;50159;49.426;11.182;2022-09-27T10:11:49;96136.31;;;11.42
17716;BMP280;50159;49.426;11.182;2022-09-27T10:14:20;96141.16;;;11.30
17716;BMP280;50159;49.426;11.182;2022-09-27T10:16:54;96131.38;;;11.16
17716;BMP280;50159;49.426;11.182;2022-09-27T10:19:32;96132.31;;;11.07
17716;BMP280;50159;49.426;11.182;2022-09-27T10:22:28;96136.38;;;11.02
17716;BMP280;50159;49.426;11.182;2022-09-27T10:25:06;96138.47;;;10.98
17716;BMP280;50159;49.426;11.182;2022-09-27T10:27:53;96130.97;;;10.96
17716;BMP280;50159;49.426;11.182;2022-09-27T10:30:32;96136.81;;;10.97
17716;BMP280;50159;49.426;11.182;2022-09-27T10:33:05;96133.97;;;11.16
17716;BMP280;50159;49.426;11.182;2022-09-27T10:35:38;96138.75;;;11.44
17716;BMP280;50159;49.426;11.182;2022-09-27T10:40:52;96128.81;;;12.10
17716;BMP280;50159;49.426;11.182;2022-09-27T10:43:32;96123.72;;;12.32
17716;BMP280;50159;49.426;11.182;2022-09-27T10:46:18;96127.94;;;12.41
17716;BMP280;50159;49.426;11.182;2022-09-27T10:48:46;96125.81;;;12.44
17716;BMP280;50159;49.426;11.182;2022-09-27T10:51:29;96129.88;;;12.39
17716;BMP280;50159;49.426;11.182;2022-09-27T10:53:57;96127.59;;;12.36
17716;BMP280;50159;49.426;11.182;2022-09-27T10:56:33;96127.66;;;12.28
17716;BMP280;50159;49.426;11.182;2022-09-27T10:59:01;96130.09;;;12.14
17716;BMP280;50159;49.426;11.182;2022-09-27T11:01:43;96135.66;;;11.95
17716;BMP280;50159;49.426;11.182;2022-09-27T11:07:18;96135.81;;;11.63
17716;BMP280;50159;49.426;11.182;2022-09-27T11:09:56;96144.78;;;11.52
17716;BMP280;50159;49.426;11.182;2022-09-27T11:12:29;96144.44;;;11.47
17716;BMP280;50159;49.426;11.182;2022-09-27T11:15:02;96152.25;;;11.40
17716;BMP280;50159;49.426;11.182;2022-09-27T11:24:04;96154.84;;;11.63
17716;BMP280;50159;49.426;11.182;2022-09-27T11:27:21;96154.41;;;11.67
17716;BMP280;50159;49.426;11.182;2022-09-27T11:30:12;96153.88;;;11.64
17716;BMP280;50159;49.426;11.182;2022-09-27T11:35:39;96131.75;;;11.76
17716;BMP280;50159;49.426;11.182;2022-09-27T11:38:30;96130.78;;;11.85
17716;BMP280;50159;49.426;11.182;2022-09-27T11:50:13;96155.34;;;12.29
17716;BMP280;50159;49.426;11.182;2022-09-27T11:52:54;96133.44;;;12.46
17716;BMP280;50159;49.426;11.182;2022-09-27T11:56:02;96133.41;;;13.07
17716;BMP280;50159;49.426;11.182;2022-09-27T11:59:30;96134.88;;;13.31
17716;BMP280;50159;49.426;11.182;2022-09-27T12:02:11;96135.56;;;13.25
17716;BMP280;50159;49.426;11.182;2022-09-27T12:05:13;96127.91;;;12.94
17716;BMP280;50159;49.426;11.182;2022-09-27T12:10:56;96124.13;;;12.51
17716;BMP280;50159;49.426;11.182;2022-09-27T12:13:36;96124.81;;;12.45
17716;BMP280;50159;49.426;11.182;2022-09-27T12:16:05;96128.06;;;12.47
17716;BMP280;50159;49.426;11.182;2022-09-27T12:18:36;96125.91;;;12.58
17716;BMP280;50159;49.426;11.182;2022-09-27T12:21:09;96120.00;;;12.80
17716;BMP280;50159;49.426;11.182;2022-09-27T12:23:53;96128.28;;;12.91
17716;BMP280;50159;49.426;11.182;2022-09-27T12:26:39;96123.41;;;12.80
17716;BMP280;50159;49.426;11.182;2022-09-27T12:29:14;96131.78;;;12.60
17716;BMP280;50159;49.426;11.182;2022-09-27T12:32:01;96129.03;;;12.46
17716;BMP280;50159;49.426;11.182;2022-09-27T12:35:39;96132.44;;;12.54
17716;BMP280;50159;49.426;11.182;2022-09-27T12:37:50;96120.56;;;13.27
17716;BMP280;50159;49.426;11.182;2022-09-27T12:40:24;96122.03;;;14.10
17716;BMP280;50159;49.426;11.182;2022-09-27T12:43:13;96114.53;;;14.57
17716;BMP280;50159;49.426;11.182;2022-09-27T12:49:12;96116.44;;;15.26
17716;BMP280;50159;49.426;11.182;2022-09-27T12:51:58;96116.34;;;15.34
17716;BMP280;50159;49.426;11.182;2022-09-27T12:54:59;96113.34;;;15.17
17716;BMP280;50159;49.426;11.182;2022-09-27T13:00:21;96107.47;;;15.35
17716;BMP280;50159;49.426;11.182;2022-09-27T13:03:27;96106.03;;;15.68
17716;BMP280;50159;49.426;11.182;2022-09-27T13:12:16;96102.75;;;14.96
17716;BMP280;50159;49.426;11.182;2022-09-27T13:15:13;96106.03;;;14.84
17716;BMP280;50159;49.426;11.182;2022-09-27T13:25:54;96099.34;;;15.45
17716;BMP280;50159;49.426;11.182;2022-09-27T13:31:01;96103.56;;;14.97
17716;BMP280;50159;49.426;11.182;2022-09-27T13:36:28;96116.13;;;14.16
17716;BMP280;50159;49.426;11.182;2022-09-27T13:44:53;96114.53;;;13.71
17716;BMP280;50159;49.426;11.182;2022-09-27T13:47:37;96112.72;;;13.49
17716;BMP280;50159;49.426;11.182;2022-09-27T13:53:35;96114.25;;;13.14
17716;BMP280;50159;49.426;11.182;2022-09-27T13:56:03;96120.31;;;13.15
17716;BMP280;50159;49.426;11.182;2022-09-27T14:01:25;96124.31;;;12.95
17716;BMP280;50159;49.426;11.182;2022-09-27T14:04:03;96129.25;;;12.90
17716;BMP280;50159;49.426;11.182;2022-09-27T14:06:41;96115.22;;;12.91
17716;BMP280;50159;49.426;11.182;2022-09-27T14:09:26;96125.13;;;12.96
17716;BMP280;50159;49.426;11.182;2022-09-27T14:11:59;96133.81;;;12.88
17716;BMP280;50159;49.426;11.182;2022-09-27T14:14:31;96135.84;;;12.71
17716;BMP280;50159;49.426;11.182;2022-09-27T14:17:00;96129.34;;;12.59
17716;BMP280;50159;49.426;11.182;2022-09-27T14:19:27;96133.28;;;12.39
17716;BMP280;50159;49.426;11.182;2022-09-27T14:21:56;96130.56;;;12.25
17716;BMP280;50159;49.426;11.182;2022-09-27T14:24:32;96119.34;;;12.17
17716;BMP280;50159;49.426;11.182;2022-09-27T14:27:38;96135.81;;;12.09
17716;BMP280;50159;49.426;11.182;2022-09-27T14:30:19;96117.41;;;12.11
17716;BMP280;50159;49.426;11.182;2022-09-27T14:32:53;96103.91;;;12.00
17716;BMP280;50159;49.426;11.182;2022-09-27T14:35:24;96113.19;;;11.94
17716;BMP280;50159;49.426;11.182;2022-09-27T14:38:17;96099.38;;;11.94
17716;BMP280;50159;49.426;11.182;2022-09-27T14:41:06;96115.47;;;11.97
17716;BMP280;50159;49.426;11.182;2022-09-27T14:43:41;96113.69;;;11.98
17716;BMP280;50159;49.426;11.182;2022-09-27T14:46:30;96115.81;;;12.02
17716;BMP280;50159;49.426;11.182;2022-09-27T14:48:57;96118.38;;;12.10
17716;BMP280;50159;49.426;11.182;2022-09-27T14:51:31;96122.25;;;12.30
17716;BMP280;50159;49.426;11.182;2022-09-27T14:53:59;96115.50;;;12.51
17716;BMP280;50159;49.426;11.182;2022-09-27T14:56:36;96125.50;;;12.85
17716;BMP280;50159;49.426;11.182;2022-09-27T14:59:13;96130.63;;;13.08
17716;BMP280;50159;49.426;11.182;2022-09-27T15:01:48;96132.63;;;13.28
17716;BMP280;50159;49.426;11.182;2022-09-27T15:04:17;96138.84;;;13.27
17716;BMP280;50159;49.426;11.182;2022-09-27T15:06:46;96125.22;;;13.10
17716;BMP280;50159;49.426;11.182;2022-09-27T15:09:15;96131.16;;;12.96
17716;BMP280;50159;49.426;11.182;2022-09-27T15:11:47;96130.22;;;12.89
17716;BMP280;50159;49.426;11.182;2022-09-27T15:14:18;96121.78;;;12.79
17716;BMP280;50159;49.426;11.182;2022-09-27T15:16:48;96124.06;;;12.75
17716;BMP280;50159;49.426;11.182;2022-09-27T15:19:24;96125.53;;;12.77
17716;BMP280;50159;49.426;11.182;2022-09-27T15:21:53;96132.25;;;13.09
17716;BMP280;50159;49.426;11.182;2022-09-27T15:24:44;96125.09;;;13.55
17716;BMP280;50159;49.426;11.182;2022-09-27T15:27:14;96120.34;;;13.81
17716;BMP280;50159;49.426;11.182;2022-09-27T15:29:52;96122.28;;;14.01
17716;BMP280;50159;49.426;11.182;2022-09-27T15:32:26;96114.44;;;14.01
17716;BMP280;50159;49.426;11.182;2022-09-27T15:34:55;96122.63;;;13.76
17716;BMP280;50159;49.426;11.182;2022-09-27T15:37:26;96126.25;;;13.31
17716;BMP280;50159;49.426;11.182;2022-09-27T15:39:53;96126.66;;;12.90
17716;BMP280;50159;49.426;11.182;2022-09-27T15:42:20;96126.09;;;12.57
17716;BMP280;50159;49.426;11.182;2022-09-27T15:44:49;96126.31;;;12.40
17716;BMP280;50159;49.426;11.182;2022-09-27T15:52:47;96134.34;;;12.07
17716;BMP280;50159;49.426;11.182;2022-09-27T15:55:23;96126.88;;;11.96
17716;BMP280;50159;49.426;11.182;2022-09-27T15:58:09;96119.38;;;11.86
17716;BMP280;50159;49.426;11.182;2022-09-27T16:00:51;96130.47;;;11.80
17716;BMP280;50159;49.426;11.182;2022-09-27T16:03:18;96123.28;;;11.74
17716;BMP280;50159;49.426;11.182;2022-09-27T16:05:45;96129.34;;;11.66
17716;BMP280;50159;49.426;11.182;2022-09-27T16:08:12;96129.63;;;11.63
17716;BMP280;50159;49.426;11.182;2022-09-27T16:10:44;96123.47;;;11.57
17716;BMP280;50159;49.426;11.182;2022-09-27T16:13:12;96129.97;;;11.53
17716;BMP280;50159;49.426;11.182;2022-09-27T16:15:39;96142.50;;;11.49
17716;BMP280;50159;49.426;11.182;2022-09-27T16:18:06;96136.97;;;11.44
17716;BMP280;50159;49.426;11.182;2022-09-27T16:20:33;96137.78;;;11.45
17716;BMP280;50159;49.426;11.182;2022-09-27T16:23:00;96136.44;;;11.33
17716;BMP280;50159;49.426;11.182;2022-09-27T16:25:27;96137.56;;;11.31
17716;BMP280;50159;49.426;11.182;2022-09-27T16:27:59;96142.59;;;11.24
17716;BMP280;50159;49.426;11.182;2022-09-27T16:30:26;96142.75;;;11.23
17716;BMP280;50159;49.426;11.182;2022-09-27T16:32:53;96148.94;;;11.22
17716;BMP280;50159;49.426;11.182;2022-09-27T16:35:22;96150.56;;;11.15
17716;BMP280;50159;49.426;11.182;2022-09-27T16:37:49;96149.22;;;11.11
17716;BMP280;50159;49.426;11.182;2022-09-27T16:40:16;96155.56;;;11.09
17716;BMP280;50159;49.426;11.182;2022-09-27T16:42:47;96156.53;;;11.08
17716;BMP280;50159;49.426;11.182;2022-09-27T16:45:15;96145.00;;;11.02